Saint-Nicolas, Belgium
Current Conditions -  °F | °C
As of 11:20 PM on Sunday 25 Jan 2015 (Local Time) from EBLG Reporting Station
Light Rain Light Rain  
Wind Chill: 28°   Ceiling: 1200
Heat Index: 36°   Visibility: 1.6mi
Dew Point: 34°   Wind: 10mph
Humidity: 93%   Direction: 200°SSW
Pressure: 30.33"   Gusts: NA
Location:  50.63°N, 5.53°E
Report Text: EBLG 252220Z 20009KT 2600 -RA SCT003 BKN012 02/01 Q1027 R23/120195 TEMPO 2000 RA BKN003
Loading
Personal Weather Stations






























Interactive Weather Map New forecast layout! Learn more

10-Day Weather Forecast

Advertisements
Track Severe Weather on mobile